首页
METAR-TAF:

METAR-TAF

机场 :

巴馬科國際機場

巴馬科, 马里共和国

纬度: 12-32N, 经度: 007-57W, 海拔: 380米

当前天气观测

该预报发布于43分钟前的17:00 UTC
风速8节,风向西
温度 35°C
湿度 42%
气压 1011 hPa
能见度10公里或以上
散云层高于3000英尺

METAR: GABS 231700Z 26008KT 9999 SCT030 35/20 Q1011 NOSIG

时间: 17:43 (17:43 UTC)

预报

该预报发布于6小时和18分钟前的11:25 UTC
预报有效从23日的 12点(UTC)到 24日的 18点(UTC)
风速10节,风向西南
能见度10公里或以上
少量云层高于2600英尺
几率 40% :
短暂存在
从 23日的 12点(UTC)到 23日的 15点(UTC)
风速15节,风向多变,有时为30节阵风
能見度: 4000
散云层高于2600英尺
少量云层高于3300英尺, 积雨云.
雷暴, 雨
短暂存在
从 23日的 15点(UTC)到 23日的 22点(UTC)
风速22节,风向,有时为45节阵风
能見度: 3000
多云层高于2600英尺
散云层高于3300英尺, 积雨云.
飑, 雷暴, 雨
几率 40% :
短暂存在
从 23日的 23点(UTC)到 24日的 08点(UTC)
风速15节,风向多变,有时为35节阵风
能見度: 4000
多云层高于2600英尺
少量云层高于3300英尺, 积雨云.
雷暴, 雨
几率 40% :
短暂存在
从 24日的 11点(UTC)到 24日的 18点(UTC)
风速20节,风向,有时为45节阵风
能見度: 3000
多云层高于2600英尺
散云层高于3300英尺, 积雨云.
飑, 雷暴, 雨

TAF: GABS 231125Z 2312/2418 22010KT 9999 FEW026 PROB40 TEMPO 2312/2315 VRB15G30KT 4000 TSRA SCT026 FEW033CB TEMPO 2315/2322 08022G45KT 3000 SQ TSRA BKN026 SCT033CB PROB40 TEMPO 2323/2408 VRB15G35KT 4000 TSRA BKN026 FEW033CB PROB40 TEMPO 2411/2418 10020G45KT 3000 SQ TSRA BKN026 SCT033CB

超过4000个机场的气象观测和天气预报(METAR&TAF报告)。

可查询的气象台以黄色和红色小点在地图上表示。

将鼠标移到小点上方,可查看气象台名称。

然后点击查看天气观测和预报。

如需切换地图:点击带黑十字的绿色按钮放大地图;点击带横线的绿色按钮缩小地图;或者点击绿色箭头查看邻近地区的地图。


METAR-TAF: